createdAt,value
2024-01-06T00:00:53.776Z,4.60
2024-01-06T00:03:21.970Z,4.60
2024-01-06T00:05:50.056Z,4.60
2024-01-06T00:08:18.280Z,4.60
2024-01-06T00:10:46.283Z,4.60
2024-01-06T00:13:15.656Z,4.60
2024-01-06T00:15:43.916Z,4.60
2024-01-06T00:18:12.084Z,4.60
2024-01-06T00:20:40.713Z,4.70
2024-01-06T00:23:08.710Z,4.70
2024-01-06T00:25:39.532Z,4.60
2024-01-06T00:28:07.781Z,4.70
2024-01-06T00:30:37.166Z,4.70
2024-01-06T00:33:05.712Z,4.60
2024-01-06T00:35:34.155Z,4.70
2024-01-06T00:38:02.506Z,4.70
2024-01-06T00:40:30.524Z,4.70
2024-01-06T00:42:58.558Z,4.70
2024-01-06T00:45:26.589Z,4.70
2024-01-06T00:47:56.072Z,4.60
2024-01-06T00:50:24.191Z,4.60
2024-01-06T00:52:53.497Z,4.60
2024-01-06T00:55:21.597Z,4.50
2024-01-06T00:57:50.103Z,4.50
2024-01-06T01:00:18.569Z,4.40
2024-01-06T01:02:46.588Z,4.40
2024-01-06T01:05:16.078Z,4.40
2024-01-06T01:07:44.106Z,4.40
2024-01-06T01:10:12.111Z,4.40
2024-01-06T01:12:40.544Z,4.40
2024-01-06T01:15:09.436Z,4.40
2024-01-06T01:17:38.236Z,4.40
2024-01-06T01:20:07.504Z,4.30
2024-01-06T01:22:36.927Z,4.40
2024-01-06T01:25:08.653Z,4.30
2024-01-06T01:27:36.916Z,4.30
2024-01-06T01:30:07.010Z,4.30
2024-01-06T01:32:35.279Z,4.30
2024-01-06T01:35:04.349Z,4.40
2024-01-06T01:37:32.619Z,4.40
2024-01-06T01:40:01.985Z,4.40
2024-01-06T01:42:30.029Z,4.40
2024-01-06T01:44:58.052Z,4.40
2024-01-06T01:47:26.750Z,4.50
2024-01-06T01:49:55.906Z,4.50
2024-01-06T01:52:24.327Z,4.50
2024-01-06T01:54:54.563Z,4.50
2024-01-06T01:57:27.175Z,4.50
2024-01-06T01:59:55.978Z,4.50
2024-01-06T02:02:25.009Z,4.50
2024-01-06T02:04:53.293Z,4.50
2024-01-06T02:07:21.373Z,4.50
2024-01-06T02:09:49.463Z,4.50
2024-01-06T02:12:17.517Z,4.40
2024-01-06T02:14:46.901Z,4.50
2024-01-06T02:17:14.928Z,4.50
2024-01-06T02:19:43.069Z,4.50
2024-01-06T02:22:12.499Z,4.50
2024-01-06T02:24:40.600Z,4.50
2024-01-06T02:27:08.601Z,4.40
2024-01-06T02:29:36.584Z,4.40
2024-01-06T02:32:04.826Z,4.40
2024-01-06T02:34:34.024Z,4.50
2024-01-06T02:37:02.159Z,4.50
2024-01-06T02:39:31.518Z,4.50
2024-01-06T02:42:02.540Z,4.50
2024-01-06T02:44:30.548Z,4.50
2024-01-06T02:46:58.550Z,4.40
2024-01-06T02:49:26.643Z,4.40
2024-01-06T02:51:54.833Z,4.40
2024-01-06T02:54:22.889Z,4.30
2024-01-06T02:56:52.273Z,4.30
2024-01-06T02:59:20.264Z,4.30
2024-01-06T03:01:48.308Z,4.30
2024-01-06T03:04:19.184Z,4.30
2024-01-06T03:06:52.959Z,4.30
2024-01-06T03:09:21.433Z,4.30
2024-01-06T03:11:49.448Z,4.20
2024-01-06T03:14:20.476Z,4.20
2024-01-06T03:16:48.525Z,4.20
2024-01-06T03:19:16.709Z,4.20
2024-01-06T03:21:44.782Z,4.20
2024-01-06T03:24:12.851Z,4.20
2024-01-06T03:26:40.860Z,4.20
2024-01-06T03:29:08.862Z,4.20
2024-01-06T03:31:38.287Z,4.20
2024-01-06T03:34:06.438Z,4.20
2024-01-06T03:36:34.618Z,4.20
2024-01-06T03:39:02.649Z,4.30
2024-01-06T03:41:30.674Z,4.20
2024-01-06T03:43:58.776Z,4.20
2024-01-06T03:46:27.177Z,4.20
2024-01-06T03:48:56.618Z,4.30
2024-01-06T03:51:23.819Z,4.30
2024-01-06T03:53:51.869Z,4.30
2024-01-06T03:56:20.497Z,4.30
2024-01-06T03:58:48.731Z,4.30
2024-01-06T04:01:18.989Z,4.30
2024-01-06T04:03:47.254Z,4.30
2024-01-06T04:06:16.984Z,4.30
2024-01-06T04:08:45.121Z,4.40
2024-01-06T04:11:13.139Z,4.40
2024-01-06T04:13:41.329Z,4.40
2024-01-06T04:16:09.386Z,4.40
2024-01-06T04:18:37.574Z,4.40
2024-01-06T04:21:06.709Z,4.30
2024-01-06T04:23:36.060Z,4.30
2024-01-06T04:26:05.652Z,4.40
2024-01-06T04:28:33.697Z,4.40
2024-01-06T04:31:01.760Z,4.50
2024-01-06T04:33:29.968Z,4.50
2024-01-06T04:35:58.948Z,4.50
2024-01-06T04:38:26.997Z,4.60
2024-01-06T04:40:56.608Z,4.60
2024-01-06T04:43:24.619Z,4.60
2024-01-06T04:45:52.755Z,4.70
2024-01-06T04:48:20.952Z,4.70
2024-01-06T04:50:49.092Z,4.70
2024-01-06T04:53:17.089Z,4.70
2024-01-06T04:55:45.110Z,4.80
2024-01-06T04:58:14.802Z,4.80
2024-01-06T05:00:42.872Z,4.80
2024-01-06T05:03:11.326Z,4.80
2024-01-06T05:05:39.414Z,4.80
2024-01-06T05:08:08.039Z,4.90
2024-01-06T05:10:36.112Z,4.90
2024-01-06T05:13:04.216Z,4.90
2024-01-06T05:15:33.713Z,4.90
2024-01-06T05:18:01.932Z,4.90
2024-01-06T05:20:30.024Z,4.90
2024-01-06T05:22:58.085Z,5.00
2024-01-06T05:25:26.122Z,5.00
2024-01-06T05:27:54.220Z,5.00
2024-01-06T05:30:22.388Z,5.10
2024-01-06T05:32:51.789Z,5.10
2024-01-06T05:35:19.828Z,5.10
2024-01-06T05:37:48.843Z,5.10
2024-01-06T05:40:16.920Z,5.10
2024-01-06T05:42:44.946Z,5.10
2024-01-06T05:45:14.264Z,5.20
2024-01-06T05:47:42.425Z,5.10
2024-01-06T05:50:12.484Z,5.20
2024-01-06T05:52:40.512Z,5.20
2024-01-06T05:55:09.022Z,5.20
2024-01-06T05:57:37.297Z,5.20
2024-01-06T06:00:06.247Z,5.20
2024-01-06T06:02:34.351Z,5.20
2024-01-06T06:05:02.376Z,5.20
2024-01-06T06:07:31.686Z,5.20
2024-01-06T06:09:59.808Z,5.20
2024-01-06T06:12:27.854Z,5.20
2024-01-06T06:14:57.158Z,5.20
2024-01-06T06:17:26.832Z,5.20
2024-01-06T06:19:54.938Z,5.20
2024-01-06T06:22:23.681Z,5.20
2024-01-06T06:24:53.082Z,5.30
2024-01-06T06:27:21.094Z,5.30
2024-01-06T06:29:49.153Z,5.30
2024-01-06T06:32:17.444Z,5.30
2024-01-06T06:34:45.606Z,5.30
2024-01-06T06:37:13.726Z,5.30
2024-01-06T06:39:42.022Z,5.30
2024-01-06T06:42:11.392Z,5.30
2024-01-06T06:44:40.031Z,5.30
2024-01-06T06:47:08.225Z,5.30
2024-01-06T06:49:36.227Z,5.30
2024-01-06T06:52:05.463Z,5.30
2024-01-06T06:54:33.569Z,5.30
2024-01-06T06:57:01.546Z,5.30
2024-01-06T06:59:31.249Z,5.30
2024-01-06T07:01:59.625Z,5.30
2024-01-06T07:04:28.292Z,5.30
2024-01-06T07:06:56.372Z,5.30
2024-01-06T07:09:25.855Z,5.30
2024-01-06T07:11:53.933Z,5.40
2024-01-06T07:14:21.923Z,5.30
2024-01-06T07:16:51.310Z,5.40
2024-01-06T07:19:19.497Z,5.40
2024-01-06T07:21:48.054Z,5.40
2024-01-06T07:24:18.844Z,5.40
2024-01-06T07:26:46.980Z,5.40
2024-01-06T07:29:14.954Z,5.40
2024-01-06T07:31:43.029Z,5.40
2024-01-06T07:34:12.525Z,5.40
2024-01-06T07:36:40.997Z,5.50
2024-01-06T07:39:09.096Z,5.50
2024-01-06T07:41:37.141Z,5.50
2024-01-06T07:44:05.954Z,5.50
2024-01-06T07:46:34.124Z,5.50
2024-01-06T07:49:02.299Z,5.50
2024-01-06T07:51:31.766Z,5.50
2024-01-06T07:54:00.219Z,5.50
2024-01-06T07:56:28.429Z,5.60
2024-01-06T07:58:56.440Z,5.60
2024-01-06T08:01:24.602Z,5.60
2024-01-06T08:03:52.729Z,5.60
2024-01-06T08:06:21.299Z,5.70
2024-01-06T08:08:50.666Z,5.70
2024-01-06T08:11:18.635Z,5.70
2024-01-06T08:13:46.624Z,5.70
2024-01-06T08:16:14.758Z,5.70
2024-01-06T08:18:42.860Z,5.70
2024-01-06T08:21:10.946Z,5.70
2024-01-06T08:23:38.929Z,5.70
2024-01-06T08:26:10.200Z,5.80
2024-01-06T08:28:39.513Z,5.80
2024-01-06T08:31:07.677Z,5.80
2024-01-06T08:33:35.865Z,5.80
2024-01-06T08:36:04.114Z,5.80
2024-01-06T08:38:32.116Z,5.80
2024-01-06T08:41:00.163Z,5.90
2024-01-06T08:43:29.558Z,5.90
2024-01-06T08:45:58.004Z,5.90
2024-01-06T08:48:26.420Z,5.90
2024-01-06T08:50:54.606Z,6.00
2024-01-06T08:53:22.600Z,6.00
2024-01-06T08:55:50.815Z,6.00
2024-01-06T08:58:18.829Z,6.10
2024-01-06T09:00:48.991Z,6.10
2024-01-06T09:03:17.262Z,6.10
2024-01-06T09:05:45.302Z,6.10
2024-01-06T09:08:13.328Z,6.10
2024-01-06T09:10:41.315Z,6.20
2024-01-06T09:13:09.333Z,6.20
2024-01-06T09:15:37.396Z,6.30
2024-01-06T09:18:07.349Z,6.30
2024-01-06T09:20:35.431Z,6.40
2024-01-06T09:23:03.549Z,6.40
2024-01-06T09:25:31.527Z,6.50
2024-01-06T09:28:00.689Z,6.50
2024-01-06T09:30:28.834Z,6.60
2024-01-06T09:32:56.988Z,6.60
2024-01-06T09:35:26.538Z,6.60
2024-01-06T09:37:54.897Z,6.70
2024-01-06T09:40:24.783Z,6.60
2024-01-06T09:42:53.596Z,6.60
2024-01-06T09:45:22.059Z,6.60
2024-01-06T09:47:52.702Z,6.50
2024-01-06T09:50:21.537Z,6.50
2024-01-06T09:52:55.034Z,6.50
2024-01-06T09:55:27.533Z,6.50
2024-01-06T09:57:56.086Z,6.50
2024-01-06T10:00:24.469Z,6.50
2024-01-06T10:02:52.920Z,6.50
2024-01-06T10:05:21.809Z,6.60
2024-01-06T10:07:51.312Z,6.60
2024-01-06T10:10:21.032Z,6.60
2024-01-06T10:12:49.125Z,6.60
2024-01-06T10:15:21.935Z,6.60
2024-01-06T10:17:51.205Z,6.60
2024-01-06T10:20:21.135Z,6.70
2024-01-06T10:22:49.299Z,6.70
2024-01-06T10:25:18.693Z,6.70
2024-01-06T10:27:46.745Z,6.80
2024-01-06T10:30:19.202Z,6.80
2024-01-06T10:32:47.509Z,6.90
2024-01-06T10:35:16.602Z,6.90
2024-01-06T10:37:44.741Z,6.90
2024-01-06T10:40:14.668Z,6.90
2024-01-06T10:42:44.719Z,6.80
2024-01-06T10:45:14.786Z,6.80
2024-01-06T10:47:44.976Z,6.80
2024-01-06T10:50:14.270Z,6.80
2024-01-06T10:52:43.093Z,6.70
2024-01-06T10:55:12.212Z,6.70
2024-01-06T10:57:42.249Z,6.70
2024-01-06T11:00:13.668Z,6.60
2024-01-06T11:02:43.176Z,6.70
2024-01-06T11:05:12.431Z,6.70
2024-01-06T11:07:42.558Z,6.70
2024-01-06T11:10:17.752Z,6.80
2024-01-06T11:12:47.051Z,6.80
2024-01-06T11:15:44.023Z,6.90
2024-01-06T11:18:32.718Z,7.00
2024-01-06T11:21:20.193Z,7.10
2024-01-06T11:23:48.993Z,7.10
2024-01-06T11:26:17.114Z,7.10
2024-01-06T11:28:49.149Z,7.10
2024-01-06T11:31:18.587Z,7.10
2024-01-06T11:33:48.626Z,7.10
2024-01-06T11:36:17.616Z,7.10
2024-01-06T11:38:49.500Z,7.00
2024-01-06T11:41:49.977Z,7.00
2024-01-06T11:44:20.880Z,7.10
2024-01-06T11:46:50.921Z,7.10
2024-01-06T11:49:20.284Z,7.20
2024-01-06T11:51:48.654Z,7.30
2024-01-06T11:54:18.700Z,7.40
2024-01-06T11:56:46.699Z,7.40
2024-01-06T11:59:14.674Z,7.40
2024-01-06T12:01:43.559Z,7.50
2024-01-06T12:04:18.774Z,7.50
2024-01-06T12:06:47.544Z,7.40
2024-01-06T12:09:16.723Z,7.40
2024-01-06T12:11:47.878Z,7.30
2024-01-06T12:14:18.218Z,7.40
2024-01-06T12:16:46.244Z,7.30
2024-01-06T12:19:15.820Z,7.30
2024-01-06T12:21:43.947Z,7.20
2024-01-06T12:24:21.735Z,7.20
2024-01-06T12:26:52.159Z,7.10
2024-01-06T12:29:20.810Z,7.10
2024-01-06T12:31:49.000Z,7.10
2024-01-06T12:34:20.759Z,7.10
2024-01-06T12:36:49.169Z,7.10
2024-01-06T12:39:17.606Z,7.10
2024-01-06T12:41:46.131Z,7.10
2024-01-06T12:44:14.229Z,7.00
2024-01-06T12:46:42.234Z,7.00
2024-01-06T12:49:11.360Z,7.00
2024-01-06T12:51:40.881Z,6.90
2024-01-06T12:54:08.932Z,6.80
2024-01-06T12:56:36.943Z,6.80
2024-01-06T12:59:05.287Z,6.80
2024-01-06T13:01:33.335Z,6.70
2024-01-06T13:04:02.615Z,6.70
2024-01-06T13:06:31.862Z,6.80
2024-01-06T13:09:03.465Z,6.80
2024-01-06T13:11:31.481Z,6.90
2024-01-06T13:13:59.461Z,6.90
2024-01-06T13:16:27.513Z,6.80
2024-01-06T13:18:56.034Z,6.80
2024-01-06T13:21:25.414Z,6.80
2024-01-06T13:23:53.532Z,6.70
2024-01-06T13:26:22.869Z,6.70
2024-01-06T13:28:50.853Z,6.70
2024-01-06T13:31:20.206Z,6.70
2024-01-06T13:33:48.681Z,6.60
2024-01-06T13:36:19.031Z,6.60
2024-01-06T13:38:47.202Z,6.60
2024-01-06T13:41:15.278Z,6.60
2024-01-06T13:43:44.716Z,6.60
2024-01-06T13:46:14.867Z,6.60
2024-01-06T13:48:43.113Z,6.60
2024-01-06T13:51:11.619Z,6.50
2024-01-06T13:53:39.711Z,6.50
2024-01-06T13:56:08.492Z,6.40
2024-01-06T13:58:38.298Z,6.40
2024-01-06T14:01:09.671Z,6.30
2024-01-06T14:03:37.897Z,6.30
2024-01-06T14:06:07.619Z,6.30
2024-01-06T14:08:35.677Z,6.30
2024-01-06T14:11:03.787Z,6.30
2024-01-06T14:13:33.797Z,6.30
2024-01-06T14:16:02.283Z,6.30
2024-01-06T14:18:32.037Z,6.20
2024-01-06T14:21:00.232Z,6.20
2024-01-06T14:23:30.808Z,6.20
2024-01-06T14:25:58.920Z,6.20
2024-01-06T14:28:26.978Z,6.20
2024-01-06T14:30:55.089Z,6.20
2024-01-06T14:33:23.456Z,6.20
2024-01-06T14:35:53.366Z,6.20
2024-01-06T14:38:21.380Z,6.20
2024-01-06T14:40:49.469Z,6.10
2024-01-06T14:43:17.475Z,6.20
2024-01-06T14:45:45.529Z,6.20
2024-01-06T14:48:13.593Z,6.20
2024-01-06T14:50:41.708Z,6.20
2024-01-06T14:53:11.792Z,6.20
2024-01-06T14:55:39.978Z,6.20
2024-01-06T14:58:09.665Z,6.10
2024-01-06T15:00:38.619Z,6.10
2024-01-06T15:03:06.915Z,6.00
2024-01-06T15:05:35.086Z,6.00
2024-01-06T15:08:03.261Z,6.00
2024-01-06T15:10:32.595Z,6.00
2024-01-06T15:13:00.798Z,6.00
2024-01-06T15:15:28.803Z,5.90
2024-01-06T15:17:56.904Z,6.00
2024-01-06T15:20:25.136Z,5.90
2024-01-06T15:22:53.093Z,5.90
2024-01-06T15:25:21.238Z,5.90
2024-01-06T15:27:50.650Z,5.80
2024-01-06T15:30:19.430Z,5.80
2024-01-06T15:32:49.964Z,5.80
2024-01-06T15:35:19.192Z,5.90
2024-01-06T15:37:48.473Z,5.80
2024-01-06T15:40:17.389Z,5.80
2024-01-06T15:42:45.528Z,5.80
2024-01-06T15:45:18.569Z,5.80
2024-01-06T15:47:46.604Z,5.80
2024-01-06T15:50:16.144Z,5.80
2024-01-06T15:52:46.875Z,5.80
2024-01-06T15:55:15.020Z,5.80
2024-01-06T15:57:43.999Z,5.80
2024-01-06T16:00:14.094Z,5.80
2024-01-06T16:02:43.410Z,5.80
2024-01-06T16:05:11.752Z,5.80
2024-01-06T16:07:39.808Z,5.80
2024-01-06T16:10:09.016Z,5.70
2024-01-06T16:12:40.568Z,5.80
2024-01-06T16:15:09.533Z,5.70
2024-01-06T16:17:38.115Z,5.70
2024-01-06T16:20:08.858Z,5.80
2024-01-06T16:22:36.922Z,5.70
2024-01-06T16:25:05.324Z,5.70
2024-01-06T16:27:33.392Z,5.70
2024-01-06T16:30:01.411Z,5.60
2024-01-06T16:32:29.558Z,5.60
2024-01-06T16:34:57.600Z,5.60
2024-01-06T16:37:27.002Z,5.60
2024-01-06T16:39:56.093Z,5.60
2024-01-06T16:42:25.110Z,5.60
2024-01-06T16:45:02.903Z,5.70
2024-01-06T16:47:30.946Z,5.60
2024-01-06T16:49:59.013Z,5.60
2024-01-06T16:52:28.394Z,5.60
2024-01-06T16:54:56.422Z,5.60
2024-01-06T16:57:24.470Z,5.60
2024-01-06T16:59:52.470Z,5.60
2024-01-06T17:02:20.788Z,5.60
2024-01-06T17:04:49.206Z,5.60
2024-01-06T17:07:17.476Z,5.60
2024-01-06T17:09:47.484Z,5.60
2024-01-06T17:12:15.867Z,5.70
2024-01-06T17:14:57.027Z,5.70
2024-01-06T17:17:25.056Z,5.70
2024-01-06T17:19:54.473Z,5.60
2024-01-06T17:22:22.642Z,5.60
2024-01-06T17:24:51.976Z,5.60
2024-01-06T17:27:20.045Z,5.60
2024-01-06T17:29:48.205Z,5.60
2024-01-06T17:32:16.221Z,5.60
2024-01-06T17:34:44.370Z,5.60
2024-01-06T17:37:12.590Z,5.60
2024-01-06T17:39:41.126Z,5.60
2024-01-06T17:42:11.068Z,5.60
2024-01-06T17:44:45.569Z,5.60
2024-01-06T17:47:14.983Z,5.60
2024-01-06T17:49:43.224Z,5.60
2024-01-06T17:52:12.561Z,5.60
2024-01-06T17:54:40.811Z,5.60
2024-01-06T17:57:11.162Z,5.60
2024-01-06T17:59:39.163Z,5.60
2024-01-06T18:02:07.303Z,5.60
2024-01-06T18:04:35.493Z,5.70
2024-01-06T18:07:03.675Z,5.60
2024-01-06T18:09:31.997Z,5.70
2024-01-06T18:12:00.025Z,5.60
2024-01-06T18:14:36.075Z,5.60
2024-01-06T18:17:04.739Z,5.60
2024-01-06T18:19:33.293Z,5.60
2024-01-06T18:22:01.421Z,5.60
2024-01-06T18:24:30.349Z,5.60
2024-01-06T18:26:58.352Z,5.60
2024-01-06T18:29:26.398Z,5.60
2024-01-06T18:31:55.713Z,5.60
2024-01-06T18:34:23.886Z,5.60
2024-01-06T18:36:51.933Z,5.60
2024-01-06T18:39:20.485Z,5.60
2024-01-06T18:41:48.483Z,5.60
2024-01-06T18:44:18.917Z,5.60
2024-01-06T18:46:46.926Z,5.60
2024-01-06T18:49:17.223Z,5.60
2024-01-06T18:51:45.495Z,5.60
2024-01-06T18:54:19.600Z,5.60
2024-01-06T18:56:54.967Z,5.60
2024-01-06T18:59:22.984Z,5.60
2024-01-06T19:01:51.045Z,5.70
2024-01-06T19:04:23.432Z,5.70
2024-01-06T19:06:51.581Z,5.70
2024-01-06T19:09:19.630Z,5.70
2024-01-06T19:11:47.849Z,5.70
2024-01-06T19:14:16.103Z,5.70
2024-01-06T19:16:46.741Z,5.70
2024-01-06T19:19:15.774Z,5.70
2024-01-06T19:21:46.105Z,5.70
2024-01-06T19:24:20.474Z,5.70
2024-01-06T19:26:55.807Z,5.70
2024-01-06T19:29:24.623Z,5.70
2024-01-06T19:31:52.622Z,5.70
2024-01-06T19:34:20.759Z,5.70
2024-01-06T19:36:50.177Z,5.70
2024-01-06T19:39:18.447Z,5.70
2024-01-06T19:41:46.475Z,5.70
2024-01-06T19:44:14.466Z,5.70
2024-01-06T19:46:43.005Z,5.70
2024-01-06T19:49:11.073Z,5.70
2024-01-06T19:51:39.282Z,5.70
2024-01-06T19:54:11.670Z,5.70
2024-01-06T19:56:40.237Z,5.70
2024-01-06T19:59:08.263Z,5.70
2024-01-06T20:01:36.909Z,5.70
2024-01-06T20:04:05.717Z,5.70
2024-01-06T20:06:33.993Z,5.70
2024-01-06T20:09:02.436Z,5.70
2024-01-06T20:11:31.762Z,5.70
2024-01-06T20:13:59.715Z,5.70
2024-01-06T20:16:27.771Z,5.70
2024-01-06T20:18:55.834Z,5.70
2024-01-06T20:21:23.957Z,5.70
2024-01-06T20:23:51.963Z,5.70
2024-01-06T20:26:19.997Z,5.70
2024-01-06T20:28:49.351Z,5.70
2024-01-06T20:31:18.928Z,5.70
2024-01-06T20:33:47.233Z,5.70
2024-01-06T20:36:16.098Z,5.70
2024-01-06T20:38:45.435Z,5.70
2024-01-06T20:41:13.576Z,5.60
2024-01-06T20:43:41.639Z,5.60
2024-01-06T20:46:11.172Z,5.60
2024-01-06T20:48:39.340Z,5.60
2024-01-06T20:51:09.121Z,5.50
2024-01-06T20:53:37.203Z,5.50
2024-01-06T20:56:05.591Z,5.50
2024-01-06T20:58:33.571Z,5.50
2024-01-06T21:01:01.715Z,5.60
2024-01-06T21:03:31.083Z,5.60
2024-01-06T21:05:59.199Z,5.60
2024-01-06T21:08:27.825Z,5.60
2024-01-06T21:10:55.804Z,5.60
2024-01-06T21:13:23.784Z,5.60
2024-01-06T21:15:51.805Z,5.60
2024-01-06T21:18:20.132Z,5.60
2024-01-06T21:20:49.567Z,5.60
2024-01-06T21:23:22.825Z,5.60
2024-01-06T21:25:57.370Z,5.60
2024-01-06T21:28:25.483Z,5.60
2024-01-06T21:30:54.344Z,5.60
2024-01-06T21:33:22.738Z,5.70
2024-01-06T21:35:52.137Z,5.70
2024-01-06T21:38:20.115Z,5.70
2024-01-06T21:40:48.748Z,5.70
2024-01-06T21:43:16.723Z,5.70
2024-01-06T21:45:44.878Z,5.70
2024-01-06T21:48:14.841Z,5.70
2024-01-06T21:50:43.143Z,5.70
2024-01-06T21:53:12.477Z,5.70
2024-01-06T21:55:40.482Z,5.70
2024-01-06T21:58:08.664Z,5.70
2024-01-06T22:00:36.790Z,5.70
2024-01-06T22:03:05.599Z,5.60
2024-01-06T22:05:33.758Z,5.60
2024-01-06T22:08:01.950Z,5.50
2024-01-06T22:10:33.861Z,5.50
2024-01-06T22:13:02.184Z,5.50
2024-01-06T22:15:32.505Z,5.40
2024-01-06T22:18:02.263Z,5.40
2024-01-06T22:20:30.330Z,5.40
2024-01-06T22:22:58.421Z,5.40
2024-01-06T22:25:26.453Z,5.40
2024-01-06T22:27:55.877Z,5.40
2024-01-06T22:30:24.044Z,5.40
2024-01-06T22:32:52.108Z,5.30
2024-01-06T22:35:20.164Z,5.30
2024-01-06T22:37:48.130Z,5.40
2024-01-06T22:40:18.481Z,5.40
2024-01-06T22:42:46.665Z,5.40
2024-01-06T22:45:16.114Z,5.40
2024-01-06T22:47:44.166Z,5.40
2024-01-06T22:50:12.215Z,5.40
2024-01-06T22:52:40.180Z,5.40
2024-01-06T22:55:09.688Z,5.40
2024-01-06T22:57:38.161Z,5.40
2024-01-06T23:00:12.874Z,5.40
2024-01-06T23:02:42.194Z,5.40
2024-01-06T23:05:10.842Z,5.40
2024-01-06T23:07:39.086Z,5.40
2024-01-06T23:10:08.365Z,5.40
2024-01-06T23:12:36.399Z,5.40
2024-01-06T23:15:04.687Z,5.40
2024-01-06T23:17:32.667Z,5.40
2024-01-06T23:20:02.191Z,5.30
2024-01-06T23:22:30.233Z,5.30
2024-01-06T23:24:58.584Z,5.30
2024-01-06T23:27:27.256Z,5.20
2024-01-06T23:29:55.317Z,5.20
2024-01-06T23:32:24.206Z,5.10
2024-01-06T23:34:52.315Z,5.10
2024-01-06T23:37:21.703Z,5.00
2024-01-06T23:39:49.774Z,4.90
2024-01-06T23:42:17.829Z,4.90
2024-01-06T23:44:52.819Z,4.90
2024-01-06T23:47:21.052Z,4.80
2024-01-06T23:49:49.149Z,4.80
2024-01-06T23:52:17.183Z,4.80
2024-01-06T23:54:46.555Z,4.80
2024-01-06T23:57:14.570Z,4.80
2024-01-06T23:59:42.683Z,4.80
